sensor_id;sensor_type;location;lat;lon;timestamp;P1;durP1;ratioP1;P2;durP2;ratioP2
19965;SDS011;10144;50.874;4.762;2024-01-10T00:02:16;17.47;;;5.87;;
19965;SDS011;10144;50.874;4.762;2024-01-10T00:04:59;20.47;;;5.87;;
19965;SDS011;10144;50.874;4.762;2024-01-10T00:07:35;18.37;;;6.03;;
19965;SDS011;10144;50.874;4.762;2024-01-10T00:13:05;20.60;;;6.20;;
19965;SDS011;10144;50.874;4.762;2024-01-10T00:15:34;19.73;;;6.53;;
19965;SDS011;10144;50.874;4.762;2024-01-10T00:18:02;18.57;;;6.23;;
19965;SDS011;10144;50.874;4.762;2024-01-10T00:20:28;17.23;;;5.33;;
19965;SDS011;10144;50.874;4.762;2024-01-10T00:22:54;17.73;;;5.37;;
19965;SDS011;10144;50.874;4.762;2024-01-10T00:25:30;18.47;;;5.77;;
19965;SDS011;10144;50.874;4.762;2024-01-10T00:30:27;19.83;;;6.43;;
19965;SDS011;10144;50.874;4.762;2024-01-10T00:35:25;18.57;;;5.70;;
19965;SDS011;10144;50.874;4.762;2024-01-10T00:37:53;22.37;;;6.10;;
19965;SDS011;10144;50.874;4.762;2024-01-10T00:40:23;18.83;;;6.60;;
19965;SDS011;10144;50.874;4.762;2024-01-10T00:42:50;19.40;;;6.67;;
19965;SDS011;10144;50.874;4.762;2024-01-10T00:45:19;19.03;;;6.40;;
19965;SDS011;10144;50.874;4.762;2024-01-10T00:47:51;19.53;;;6.07;;
19965;SDS011;10144;50.874;4.762;2024-01-10T00:50:20;21.33;;;6.90;;
19965;SDS011;10144;50.874;4.762;2024-01-10T00:52:49;18.00;;;5.97;;
19965;SDS011;10144;50.874;4.762;2024-01-10T00:55:17;21.47;;;6.57;;
19965;SDS011;10144;50.874;4.762;2024-01-10T00:57:46;21.27;;;6.10;;
19965;SDS011;10144;50.874;4.762;2024-01-10T01:00:29;18.63;;;6.10;;
19965;SDS011;10144;50.874;4.762;2024-01-10T01:02:54;19.93;;;6.47;;
19965;SDS011;10144;50.874;4.762;2024-01-10T01:05:23;21.50;;;6.37;;
19965;SDS011;10144;50.874;4.762;2024-01-10T01:18:05;23.87;;;6.30;;
19965;SDS011;10144;50.874;4.762;2024-01-10T01:23:05;22.27;;;6.37;;
19965;SDS011;10144;50.874;4.762;2024-01-10T01:25:32;20.13;;;6.47;;
19965;SDS011;10144;50.874;4.762;2024-01-10T01:33:37;21.17;;;6.90;;
19965;SDS011;10144;50.874;4.762;2024-01-10T01:45:06;19.57;;;6.80;;
19965;SDS011;10144;50.874;4.762;2024-01-10T01:47:37;18.63;;;5.83;;
19965;SDS011;10144;50.874;4.762;2024-01-10T01:52:33;24.33;;;7.53;;
19965;SDS011;10144;50.874;4.762;2024-01-10T02:06:51;22.87;;;6.37;;
19965;SDS011;10144;50.874;4.762;2024-01-10T02:11:46;22.73;;;6.73;;
19965;SDS011;10144;50.874;4.762;2024-01-10T02:14:17;23.20;;;6.57;;
19965;SDS011;10144;50.874;4.762;2024-01-10T02:16:46;22.60;;;7.10;;
19965;SDS011;10144;50.874;4.762;2024-01-10T02:19:22;24.47;;;6.70;;
19965;SDS011;10144;50.874;4.762;2024-01-10T02:21:49;23.87;;;6.80;;
19965;SDS011;10144;50.874;4.762;2024-01-10T02:24:18;21.40;;;7.10;;
19965;SDS011;10144;50.874;4.762;2024-01-10T02:29:14;21.80;;;6.60;;
19965;SDS011;10144;50.874;4.762;2024-01-10T02:31:41;20.77;;;6.47;;
19965;SDS011;10144;50.874;4.762;2024-01-10T02:37:05;22.40;;;6.93;;
19965;SDS011;10144;50.874;4.762;2024-01-10T02:39:37;22.23;;;6.30;;
19965;SDS011;10144;50.874;4.762;2024-01-10T02:42:02;22.33;;;7.27;;
19965;SDS011;10144;50.874;4.762;2024-01-10T02:46:57;22.33;;;6.53;;
19965;SDS011;10144;50.874;4.762;2024-01-10T02:54:28;17.93;;;6.37;;
19965;SDS011;10144;50.874;4.762;2024-01-10T02:56:54;23.47;;;7.37;;
19965;SDS011;10144;50.874;4.762;2024-01-10T02:59:21;21.60;;;6.83;;
19965;SDS011;10144;50.874;4.762;2024-01-10T03:01:47;20.23;;;6.53;;
19965;SDS011;10144;50.874;4.762;2024-01-10T03:09:11;24.83;;;7.27;;
19965;SDS011;10144;50.874;4.762;2024-01-10T03:11:40;23.23;;;7.53;;
19965;SDS011;10144;50.874;4.762;2024-01-10T03:14:12;21.10;;;6.70;;
19965;SDS011;10144;50.874;4.762;2024-01-10T03:20:13;22.33;;;6.93;;
19965;SDS011;10144;50.874;4.762;2024-01-10T03:22:41;24.10;;;7.20;;
19965;SDS011;10144;50.874;4.762;2024-01-10T03:25:06;21.67;;;7.40;;
19965;SDS011;10144;50.874;4.762;2024-01-10T03:33:18;24.80;;;7.37;;
19965;SDS011;10144;50.874;4.762;2024-01-10T03:38:19;22.47;;;7.43;;
19965;SDS011;10144;50.874;4.762;2024-01-10T03:40:48;22.40;;;7.43;;
19965;SDS011;10144;50.874;4.762;2024-01-10T03:43:28;21.37;;;6.87;;
19965;SDS011;10144;50.874;4.762;2024-01-10T03:46:00;23.43;;;7.30;;
19965;SDS011;10144;50.874;4.762;2024-01-10T03:48:38;20.63;;;6.83;;
19965;SDS011;10144;50.874;4.762;2024-01-10T04:02:56;25.10;;;7.83;;
19965;SDS011;10144;50.874;4.762;2024-01-10T04:05:27;23.63;;;6.93;;
19965;SDS011;10144;50.874;4.762;2024-01-10T04:07:54;26.90;;;7.07;;
19965;SDS011;10144;50.874;4.762;2024-01-10T04:13:09;24.20;;;7.40;;
19965;SDS011;10144;50.874;4.762;2024-01-10T04:21:03;20.43;;;6.90;;
19965;SDS011;10144;50.874;4.762;2024-01-10T04:23:32;38.90;;;12.17;;
19965;SDS011;10144;50.874;4.762;2024-01-10T04:26:00;25.77;;;8.13;;
19965;SDS011;10144;50.874;4.762;2024-01-10T04:30:56;33.30;;;10.73;;
19965;SDS011;10144;50.874;4.762;2024-01-10T04:36:00;28.37;;;9.13;;
19965;SDS011;10144;50.874;4.762;2024-01-10T04:38:34;32.83;;;8.00;;
19965;SDS011;10144;50.874;4.762;2024-01-10T04:44:23;27.77;;;8.93;;
19965;SDS011;10144;50.874;4.762;2024-01-10T04:46:55;23.63;;;8.40;;
19965;SDS011;10144;50.874;4.762;2024-01-10T04:49:24;46.30;;;13.63;;
19965;SDS011;10144;50.874;4.762;2024-01-10T04:51:50;37.37;;;11.43;;
19965;SDS011;10144;50.874;4.762;2024-01-10T05:01:54;24.67;;;7.77;;
19965;SDS011;10144;50.874;4.762;2024-01-10T05:04:23;49.53;;;15.37;;
19965;SDS011;10144;50.874;4.762;2024-01-10T05:06:49;31.03;;;10.50;;
19965;SDS011;10144;50.874;4.762;2024-01-10T05:09:25;35.80;;;13.00;;
19965;SDS011;10144;50.874;4.762;2024-01-10T05:14:20;25.13;;;7.77;;
19965;SDS011;10144;50.874;4.762;2024-01-10T05:22:06;24.43;;;8.13;;
19965;SDS011;10144;50.874;4.762;2024-01-10T05:30:27;27.17;;;7.97;;
19965;SDS011;10144;50.874;4.762;2024-01-10T05:38:17;24.57;;;7.80;;
19965;SDS011;10144;50.874;4.762;2024-01-10T05:40:57;28.83;;;8.23;;
19965;SDS011;10144;50.874;4.762;2024-01-10T05:43:27;19.03;;;7.27;;
19965;SDS011;10144;50.874;4.762;2024-01-10T05:45:56;25.57;;;9.40;;
19965;SDS011;10144;50.874;4.762;2024-01-10T05:48:25;27.87;;;9.70;;
19965;SDS011;10144;50.874;4.762;2024-01-10T05:59:07;24.33;;;8.53;;
19965;SDS011;10144;50.874;4.762;2024-01-10T06:01:32;27.37;;;8.77;;
19965;SDS011;10144;50.874;4.762;2024-01-10T06:04:02;27.90;;;9.43;;
19965;SDS011;10144;50.874;4.762;2024-01-10T06:06:27;28.63;;;12.20;;
19965;SDS011;10144;50.874;4.762;2024-01-10T06:08:56;25.77;;;7.93;;
19965;SDS011;10144;50.874;4.762;2024-01-10T06:11:23;29.23;;;9.80;;
19965;SDS011;10144;50.874;4.762;2024-01-10T06:13:49;24.60;;;9.43;;
19965;SDS011;10144;50.874;4.762;2024-01-10T06:16:14;31.40;;;9.00;;
19965;SDS011;10144;50.874;4.762;2024-01-10T06:18:47;23.37;;;7.20;;
19965;SDS011;10144;50.874;4.762;2024-01-10T06:21:29;20.97;;;6.57;;
19965;SDS011;10144;50.874;4.762;2024-01-10T06:24:06;22.03;;;7.33;;
19965;SDS011;10144;50.874;4.762;2024-01-10T06:26:43;32.03;;;11.83;;
19965;SDS011;10144;50.874;4.762;2024-01-10T06:29:19;30.20;;;9.27;;
19965;SDS011;10144;50.874;4.762;2024-01-10T06:34:14;32.43;;;10.27;;
19965;SDS011;10144;50.874;4.762;2024-01-10T06:36:42;36.43;;;10.43;;
19965;SDS011;10144;50.874;4.762;2024-01-10T06:39:11;27.97;;;8.83;;
19965;SDS011;10144;50.874;4.762;2024-01-10T06:41:55;23.80;;;7.67;;
19965;SDS011;10144;50.874;4.762;2024-01-10T06:44:24;24.47;;;7.73;;
19965;SDS011;10144;50.874;4.762;2024-01-10T06:46:50;21.53;;;7.03;;
19965;SDS011;10144;50.874;4.762;2024-01-10T06:49:19;24.83;;;6.87;;
19965;SDS011;10144;50.874;4.762;2024-01-10T06:51:47;29.23;;;7.53;;
19965;SDS011;10144;50.874;4.762;2024-01-10T06:54:16;45.83;;;10.90;;
19965;SDS011;10144;50.874;4.762;2024-01-10T06:56:43;44.07;;;11.70;;
19965;SDS011;10144;50.874;4.762;2024-01-10T06:59:09;47.97;;;11.63;;
19965;SDS011;10144;50.874;4.762;2024-01-10T07:01:37;49.93;;;12.30;;
19965;SDS011;10144;50.874;4.762;2024-01-10T07:06:33;25.33;;;7.00;;
19965;SDS011;10144;50.874;4.762;2024-01-10T07:09:07;27.20;;;6.87;;
19965;SDS011;10144;50.874;4.762;2024-01-10T07:11:32;139.37;;;32.97;;
19965;SDS011;10144;50.874;4.762;2024-01-10T07:16:30;135.73;;;30.57;;
19965;SDS011;10144;50.874;4.762;2024-01-10T07:21:28;106.23;;;30.17;;
19965;SDS011;10144;50.874;4.762;2024-01-10T07:23:56;38.03;;;12.60;;
19965;SDS011;10144;50.874;4.762;2024-01-10T07:26:25;31.47;;;12.33;;
19965;SDS011;10144;50.874;4.762;2024-01-10T07:28:55;24.60;;;7.57;;
19965;SDS011;10144;50.874;4.762;2024-01-10T07:31:21;27.07;;;7.23;;
19965;SDS011;10144;50.874;4.762;2024-01-10T07:33:48;26.53;;;7.50;;
19965;SDS011;10144;50.874;4.762;2024-01-10T07:36:14;24.50;;;7.23;;
19965;SDS011;10144;50.874;4.762;2024-01-10T07:38:40;24.53;;;6.60;;
19965;SDS011;10144;50.874;4.762;2024-01-10T07:41:06;21.10;;;7.40;;
19965;SDS011;10144;50.874;4.762;2024-01-10T07:43:33;25.30;;;7.07;;
19965;SDS011;10144;50.874;4.762;2024-01-10T07:46:14;19.83;;;6.73;;
19965;SDS011;10144;50.874;4.762;2024-01-10T07:48:48;24.37;;;7.23;;
19965;SDS011;10144;50.874;4.762;2024-01-10T07:51:14;23.40;;;6.67;;
19965;SDS011;10144;50.874;4.762;2024-01-10T07:53:41;21.83;;;6.80;;
19965;SDS011;10144;50.874;4.762;2024-01-10T08:01:07;23.33;;;6.90;;
19965;SDS011;10144;50.874;4.762;2024-01-10T08:06:05;23.87;;;7.00;;
19965;SDS011;10144;50.874;4.762;2024-01-10T08:08:31;27.10;;;6.83;;
19965;SDS011;10144;50.874;4.762;2024-01-10T08:10:58;23.80;;;7.40;;
19965;SDS011;10144;50.874;4.762;2024-01-10T08:13:26;21.07;;;6.80;;
19965;SDS011;10144;50.874;4.762;2024-01-10T08:18:22;22.77;;;7.70;;
19965;SDS011;10144;50.874;4.762;2024-01-10T08:20:48;28.13;;;8.00;;
19965;SDS011;10144;50.874;4.762;2024-01-10T08:23:15;25.47;;;7.50;;
19965;SDS011;10144;50.874;4.762;2024-01-10T08:25:40;25.27;;;8.93;;
19965;SDS011;10144;50.874;4.762;2024-01-10T08:28:09;30.40;;;10.50;;
19965;SDS011;10144;50.874;4.762;2024-01-10T08:30:35;32.17;;;11.30;;
19965;SDS011;10144;50.874;4.762;2024-01-10T08:33:00;23.00;;;8.33;;
19965;SDS011;10144;50.874;4.762;2024-01-10T08:35:30;41.47;;;17.90;;
19965;SDS011;10144;50.874;4.762;2024-01-10T08:37:56;23.37;;;8.13;;
19965;SDS011;10144;50.874;4.762;2024-01-10T08:40:22;19.67;;;6.77;;
19965;SDS011;10144;50.874;4.762;2024-01-10T08:42:51;22.50;;;7.73;;
19965;SDS011;10144;50.874;4.762;2024-01-10T08:45:17;20.10;;;7.93;;
19965;SDS011;10144;50.874;4.762;2024-01-10T08:47:44;22.20;;;8.33;;
19965;SDS011;10144;50.874;4.762;2024-01-10T08:50:10;18.93;;;7.07;;
19965;SDS011;10144;50.874;4.762;2024-01-10T08:52:37;24.23;;;8.93;;
19965;SDS011;10144;50.874;4.762;2024-01-10T08:55:07;27.40;;;10.70;;
19965;SDS011;10144;50.874;4.762;2024-01-10T08:57:34;21.30;;;6.90;;
19965;SDS011;10144;50.874;4.762;2024-01-10T09:00:00;22.67;;;7.53;;
19965;SDS011;10144;50.874;4.762;2024-01-10T09:02:26;23.10;;;8.40;;
19965;SDS011;10144;50.874;4.762;2024-01-10T09:04:53;22.67;;;7.90;;
19965;SDS011;10144;50.874;4.762;2024-01-10T09:07:19;23.83;;;8.10;;
19965;SDS011;10144;50.874;4.762;2024-01-10T09:09:46;21.53;;;7.83;;
19965;SDS011;10144;50.874;4.762;2024-01-10T09:12:12;18.33;;;7.23;;
19965;SDS011;10144;50.874;4.762;2024-01-10T09:14:37;20.43;;;7.23;;
19965;SDS011;10144;50.874;4.762;2024-01-10T09:17:03;19.43;;;7.70;;
19965;SDS011;10144;50.874;4.762;2024-01-10T09:19:29;27.53;;;10.23;;
19965;SDS011;10144;50.874;4.762;2024-01-10T09:21:58;28.57;;;9.30;;
19965;SDS011;10144;50.874;4.762;2024-01-10T09:24:24;19.87;;;8.90;;
19965;SDS011;10144;50.874;4.762;2024-01-10T09:26:52;23.57;;;8.47;;
19965;SDS011;10144;50.874;4.762;2024-01-10T09:29:18;21.13;;;8.80;;
19965;SDS011;10144;50.874;4.762;2024-01-10T09:31:44;20.57;;;7.67;;
19965;SDS011;10144;50.874;4.762;2024-01-10T09:34:10;21.67;;;8.20;;
19965;SDS011;10144;50.874;4.762;2024-01-10T09:36:35;20.93;;;7.63;;
19965;SDS011;10144;50.874;4.762;2024-01-10T09:39:02;20.73;;;8.23;;
19965;SDS011;10144;50.874;4.762;2024-01-10T09:41:30;22.07;;;7.60;;
19965;SDS011;10144;50.874;4.762;2024-01-10T09:44:00;23.57;;;8.57;;
19965;SDS011;10144;50.874;4.762;2024-01-10T09:46:27;19.83;;;7.83;;
19965;SDS011;10144;50.874;4.762;2024-01-10T09:48:55;18.53;;;7.50;;
19965;SDS011;10144;50.874;4.762;2024-01-10T09:51:20;21.73;;;7.50;;
19965;SDS011;10144;50.874;4.762;2024-01-10T09:53:48;26.43;;;7.87;;
19965;SDS011;10144;50.874;4.762;2024-01-10T09:56:16;20.17;;;7.73;;
19965;SDS011;10144;50.874;4.762;2024-01-10T09:58:45;29.20;;;8.40;;
19965;SDS011;10144;50.874;4.762;2024-01-10T10:01:15;21.10;;;8.07;;
19965;SDS011;10144;50.874;4.762;2024-01-10T10:06:11;16.10;;;6.10;;
19965;SDS011;10144;50.874;4.762;2024-01-10T10:08:36;23.03;;;7.50;;
19965;SDS011;10144;50.874;4.762;2024-01-10T10:11:03;22.50;;;8.43;;
19965;SDS011;10144;50.874;4.762;2024-01-10T10:13:29;25.10;;;7.87;;
19965;SDS011;10144;50.874;4.762;2024-01-10T10:15:59;20.13;;;7.60;;
19965;SDS011;10144;50.874;4.762;2024-01-10T10:18:29;22.87;;;7.77;;
19965;SDS011;10144;50.874;4.762;2024-01-10T10:21:31;23.50;;;8.40;;
19965;SDS011;10144;50.874;4.762;2024-01-10T10:24:00;20.93;;;6.43;;
19965;SDS011;10144;50.874;4.762;2024-01-10T10:26:28;17.73;;;6.80;;
19965;SDS011;10144;50.874;4.762;2024-01-10T10:28:57;24.57;;;8.37;;
19965;SDS011;10144;50.874;4.762;2024-01-10T10:31:24;18.27;;;6.33;;
19965;SDS011;10144;50.874;4.762;2024-01-10T10:33:51;23.77;;;7.20;;
19965;SDS011;10144;50.874;4.762;2024-01-10T10:36:19;15.23;;;5.50;;
19965;SDS011;10144;50.874;4.762;2024-01-10T10:38:48;32.03;;;10.80;;
19965;SDS011;10144;50.874;4.762;2024-01-10T10:41:14;60.00;;;21.17;;
19965;SDS011;10144;50.874;4.762;2024-01-10T10:43:41;40.53;;;14.27;;
19965;SDS011;10144;50.874;4.762;2024-01-10T10:46:10;46.17;;;17.00;;
19965;SDS011;10144;50.874;4.762;2024-01-10T10:48:41;26.77;;;9.87;;
19965;SDS011;10144;50.874;4.762;2024-01-10T10:51:09;18.50;;;6.37;;
19965;SDS011;10144;50.874;4.762;2024-01-10T10:53:46;21.00;;;8.60;;
19965;SDS011;10144;50.874;4.762;2024-01-10T10:56:13;25.40;;;9.17;;
19965;SDS011;10144;50.874;4.762;2024-01-10T10:58:44;29.57;;;9.97;;
19965;SDS011;10144;50.874;4.762;2024-01-10T11:01:11;24.00;;;9.20;;
19965;SDS011;10144;50.874;4.762;2024-01-10T11:03:38;29.80;;;11.10;;
19965;SDS011;10144;50.874;4.762;2024-01-10T11:06:06;25.10;;;8.47;;
19965;SDS011;10144;50.874;4.762;2024-01-10T11:08:36;21.00;;;7.80;;
19965;SDS011;10144;50.874;4.762;2024-01-10T11:25:43;20.17;;;7.03;;
19965;SDS011;10144;50.874;4.762;2024-01-10T11:28:12;24.07;;;8.00;;
19965;SDS011;10144;50.874;4.762;2024-01-10T11:30:47;25.63;;;8.00;;
19965;SDS011;10144;50.874;4.762;2024-01-10T11:33:23;22.47;;;6.77;;
19965;SDS011;10144;50.874;4.762;2024-01-10T11:38:48;27.27;;;8.63;;
19965;SDS011;10144;50.874;4.762;2024-01-10T11:41:40;25.70;;;7.00;;
19965;SDS011;10144;50.874;4.762;2024-01-10T11:49:14;23.33;;;7.93;;
19965;SDS011;10144;50.874;4.762;2024-01-10T11:51:43;30.23;;;7.97;;
19965;SDS011;10144;50.874;4.762;2024-01-10T11:54:11;26.67;;;8.73;;
19965;SDS011;10144;50.874;4.762;2024-01-10T11:56:43;27.30;;;9.57;;
19965;SDS011;10144;50.874;4.762;2024-01-10T11:59:11;19.97;;;7.23;;
19965;SDS011;10144;50.874;4.762;2024-01-10T12:01:38;23.30;;;7.90;;
19965;SDS011;10144;50.874;4.762;2024-01-10T12:04:05;24.57;;;8.30;;
19965;SDS011;10144;50.874;4.762;2024-01-10T12:06:33;30.60;;;9.00;;
19965;SDS011;10144;50.874;4.762;2024-01-10T12:09:01;23.63;;;8.33;;
19965;SDS011;10144;50.874;4.762;2024-01-10T12:11:35;27.33;;;9.20;;
19965;SDS011;10144;50.874;4.762;2024-01-10T12:14:04;32.33;;;9.27;;
19965;SDS011;10144;50.874;4.762;2024-01-10T12:16:36;30.47;;;9.73;;
19965;SDS011;10144;50.874;4.762;2024-01-10T12:19:02;20.80;;;7.77;;
19965;SDS011;10144;50.874;4.762;2024-01-10T12:21:29;31.20;;;8.63;;
19965;SDS011;10144;50.874;4.762;2024-01-10T12:23:56;20.00;;;6.53;;
19965;SDS011;10144;50.874;4.762;2024-01-10T12:28:58;25.80;;;8.13;;
19965;SDS011;10144;50.874;4.762;2024-01-10T12:31:28;25.70;;;8.70;;
19965;SDS011;10144;50.874;4.762;2024-01-10T12:33:58;26.50;;;9.73;;
19965;SDS011;10144;50.874;4.762;2024-01-10T12:36:24;21.63;;;6.97;;
19965;SDS011;10144;50.874;4.762;2024-01-10T12:38:50;25.60;;;8.70;;
19965;SDS011;10144;50.874;4.762;2024-01-10T12:41:16;28.07;;;8.90;;
19965;SDS011;10144;50.874;4.762;2024-01-10T12:43:43;25.13;;;8.57;;
19965;SDS011;10144;50.874;4.762;2024-01-10T12:46:20;26.73;;;9.10;;
19965;SDS011;10144;50.874;4.762;2024-01-10T12:48:49;28.40;;;9.27;;
19965;SDS011;10144;50.874;4.762;2024-01-10T12:51:32;27.43;;;8.40;;
19965;SDS011;10144;50.874;4.762;2024-01-10T12:54:01;25.43;;;8.70;;
19965;SDS011;10144;50.874;4.762;2024-01-10T12:56:28;27.03;;;7.93;;
19965;SDS011;10144;50.874;4.762;2024-01-10T12:58:55;28.10;;;8.83;;
19965;SDS011;10144;50.874;4.762;2024-01-10T13:01:22;23.47;;;7.60;;
19965;SDS011;10144;50.874;4.762;2024-01-10T13:03:48;25.50;;;8.50;;
19965;SDS011;10144;50.874;4.762;2024-01-10T13:06:14;27.50;;;9.43;;
19965;SDS011;10144;50.874;4.762;2024-01-10T13:08:41;29.47;;;9.37;;
19965;SDS011;10144;50.874;4.762;2024-01-10T13:11:07;27.97;;;9.27;;
19965;SDS011;10144;50.874;4.762;2024-01-10T13:13:37;27.03;;;7.70;;
19965;SDS011;10144;50.874;4.762;2024-01-10T13:16:03;26.43;;;8.57;;
19965;SDS011;10144;50.874;4.762;2024-01-10T13:18:30;25.63;;;7.33;;
19965;SDS011;10144;50.874;4.762;2024-01-10T13:20:56;28.03;;;9.20;;
19965;SDS011;10144;50.874;4.762;2024-01-10T13:23:22;24.30;;;6.43;;
19965;SDS011;10144;50.874;4.762;2024-01-10T13:25:49;29.33;;;8.60;;
19965;SDS011;10144;50.874;4.762;2024-01-10T13:28:19;25.10;;;8.40;;
19965;SDS011;10144;50.874;4.762;2024-01-10T13:30:45;27.57;;;9.00;;
19965;SDS011;10144;50.874;4.762;2024-01-10T13:33:11;20.90;;;7.30;;
19965;SDS011;10144;50.874;4.762;2024-01-10T13:35:38;25.90;;;8.70;;
19965;SDS011;10144;50.874;4.762;2024-01-10T13:38:04;31.47;;;10.00;;
19965;SDS011;10144;50.874;4.762;2024-01-10T13:40:31;28.87;;;9.07;;
19965;SDS011;10144;50.874;4.762;2024-01-10T13:42:59;31.73;;;9.80;;
19965;SDS011;10144;50.874;4.762;2024-01-10T13:45:27;23.13;;;7.97;;
19965;SDS011;10144;50.874;4.762;2024-01-10T13:47:53;26.40;;;8.70;;
19965;SDS011;10144;50.874;4.762;2024-01-10T13:50:19;27.73;;;9.13;;
19965;SDS011;10144;50.874;4.762;2024-01-10T13:52:45;26.00;;;9.30;;
19965;SDS011;10144;50.874;4.762;2024-01-10T13:55:11;28.07;;;8.93;;
19965;SDS011;10144;50.874;4.762;2024-01-10T13:57:38;26.20;;;8.20;;
19965;SDS011;10144;50.874;4.762;2024-01-10T14:00:06;30.93;;;10.30;;
19965;SDS011;10144;50.874;4.762;2024-01-10T14:02:33;26.03;;;9.17;;
19965;SDS011;10144;50.874;4.762;2024-01-10T14:05:00;29.27;;;8.40;;
19965;SDS011;10144;50.874;4.762;2024-01-10T14:07:30;24.40;;;8.50;;
19965;SDS011;10144;50.874;4.762;2024-01-10T14:09:56;28.73;;;8.67;;
19965;SDS011;10144;50.874;4.762;2024-01-10T14:12:21;24.87;;;7.40;;
19965;SDS011;10144;50.874;4.762;2024-01-10T14:14:47;25.67;;;9.00;;
19965;SDS011;10144;50.874;4.762;2024-01-10T14:17:15;21.93;;;7.90;;
19965;SDS011;10144;50.874;4.762;2024-01-10T14:19:40;32.30;;;10.20;;
19965;SDS011;10144;50.874;4.762;2024-01-10T14:22:06;27.03;;;9.03;;
19965;SDS011;10144;50.874;4.762;2024-01-10T14:24:33;29.23;;;10.00;;
19965;SDS011;10144;50.874;4.762;2024-01-10T14:26:58;24.30;;;8.27;;
19965;SDS011;10144;50.874;4.762;2024-01-10T14:29:24;34.00;;;9.93;;
19965;SDS011;10144;50.874;4.762;2024-01-10T14:31:50;34.20;;;11.17;;
19965;SDS011;10144;50.874;4.762;2024-01-10T14:34:17;27.00;;;9.03;;
19965;SDS011;10144;50.874;4.762;2024-01-10T14:36:44;36.13;;;11.00;;
19965;SDS011;10144;50.874;4.762;2024-01-10T14:39:10;28.87;;;8.87;;
19965;SDS011;10144;50.874;4.762;2024-01-10T14:41:40;51.43;;;19.23;;
19965;SDS011;10144;50.874;4.762;2024-01-10T14:44:05;30.63;;;9.90;;
19965;SDS011;10144;50.874;4.762;2024-01-10T14:46:32;28.80;;;8.73;;
19965;SDS011;10144;50.874;4.762;2024-01-10T14:48:58;35.80;;;10.00;;
19965;SDS011;10144;50.874;4.762;2024-01-10T14:51:23;34.10;;;10.90;;
19965;SDS011;10144;50.874;4.762;2024-01-10T14:53:49;25.43;;;8.80;;
19965;SDS011;10144;50.874;4.762;2024-01-10T14:56:16;32.13;;;9.80;;
19965;SDS011;10144;50.874;4.762;2024-01-10T14:58:43;31.80;;;9.03;;
19965;SDS011;10144;50.874;4.762;2024-01-10T15:01:10;32.10;;;10.33;;
19965;SDS011;10144;50.874;4.762;2024-01-10T15:03:36;26.87;;;9.47;;
19965;SDS011;10144;50.874;4.762;2024-01-10T15:06:05;31.10;;;9.37;;
19965;SDS011;10144;50.874;4.762;2024-01-10T15:08:31;30.57;;;8.97;;
19965;SDS011;10144;50.874;4.762;2024-01-10T15:10:59;27.03;;;9.20;;
19965;SDS011;10144;50.874;4.762;2024-01-10T15:13:24;29.20;;;9.60;;
19965;SDS011;10144;50.874;4.762;2024-01-10T15:15:50;26.23;;;8.60;;
19965;SDS011;10144;50.874;4.762;2024-01-10T15:18:17;33.77;;;10.40;;
19965;SDS011;10144;50.874;4.762;2024-01-10T15:20:45;30.80;;;9.90;;
19965;SDS011;10144;50.874;4.762;2024-01-10T15:23:11;31.60;;;10.33;;
19965;SDS011;10144;50.874;4.762;2024-01-10T15:25:36;31.70;;;10.20;;
19965;SDS011;10144;50.874;4.762;2024-01-10T15:28:02;36.63;;;11.00;;
19965;SDS011;10144;50.874;4.762;2024-01-10T15:30:29;33.03;;;10.10;;
19965;SDS011;10144;50.874;4.762;2024-01-10T15:32:57;29.63;;;10.77;;
19965;SDS011;10144;50.874;4.762;2024-01-10T15:35:23;34.27;;;10.20;;
19965;SDS011;10144;50.874;4.762;2024-01-10T15:37:49;35.53;;;10.73;;
19965;SDS011;10144;50.874;4.762;2024-01-10T15:40:15;34.37;;;11.00;;
19965;SDS011;10144;50.874;4.762;2024-01-10T15:42:41;34.80;;;10.13;;
19965;SDS011;10144;50.874;4.762;2024-01-10T15:45:07;35.73;;;12.03;;
19965;SDS011;10144;50.874;4.762;2024-01-10T15:47:36;41.57;;;12.10;;
19965;SDS011;10144;50.874;4.762;2024-01-10T15:50:02;31.13;;;10.40;;
19965;SDS011;10144;50.874;4.762;2024-01-10T15:52:28;32.30;;;10.37;;
19965;SDS011;10144;50.874;4.762;2024-01-10T15:54:54;35.03;;;10.80;;
19965;SDS011;10144;50.874;4.762;2024-01-10T15:57:21;35.50;;;11.67;;
19965;SDS011;10144;50.874;4.762;2024-01-10T15:59:50;35.23;;;10.70;;
19965;SDS011;10144;50.874;4.762;2024-01-10T16:02:16;41.47;;;12.30;;
19965;SDS011;10144;50.874;4.762;2024-01-10T16:04:42;72.07;;;20.20;;
19965;SDS011;10144;50.874;4.762;2024-01-10T16:07:11;85.97;;;25.50;;
19965;SDS011;10144;50.874;4.762;2024-01-10T16:09:38;70.13;;;24.43;;
19965;SDS011;10144;50.874;4.762;2024-01-10T16:12:05;41.73;;;13.10;;
19965;SDS011;10144;50.874;4.762;2024-01-10T16:14:31;62.67;;;21.37;;
19965;SDS011;10144;50.874;4.762;2024-01-10T16:17:00;51.73;;;18.63;;
19965;SDS011;10144;50.874;4.762;2024-01-10T16:19:29;39.17;;;13.60;;
19965;SDS011;10144;50.874;4.762;2024-01-10T16:24:53;35.63;;;10.47;;
19965;SDS011;10144;50.874;4.762;2024-01-10T16:32:53;33.20;;;10.30;;
19965;SDS011;10144;50.874;4.762;2024-01-10T16:35:19;32.60;;;11.00;;
19965;SDS011;10144;50.874;4.762;2024-01-10T16:37:46;37.27;;;11.83;;
19965;SDS011;10144;50.874;4.762;2024-01-10T16:40:13;35.43;;;10.73;;
19965;SDS011;10144;50.874;4.762;2024-01-10T16:42:42;34.27;;;11.87;;
19965;SDS011;10144;50.874;4.762;2024-01-10T16:47:43;50.10;;;15.40;;
19965;SDS011;10144;50.874;4.762;2024-01-10T16:52:39;77.00;;;23.43;;
19965;SDS011;10144;50.874;4.762;2024-01-10T16:55:08;38.03;;;11.40;;
19965;SDS011;10144;50.874;4.762;2024-01-10T16:57:34;46.97;;;15.43;;
19965;SDS011;10144;50.874;4.762;2024-01-10T16:59:59;37.67;;;12.30;;
19965;SDS011;10144;50.874;4.762;2024-01-10T17:02:26;33.80;;;11.47;;
19965;SDS011;10144;50.874;4.762;2024-01-10T17:05:03;39.03;;;11.30;;
19965;SDS011;10144;50.874;4.762;2024-01-10T17:07:30;33.83;;;10.27;;
19965;SDS011;10144;50.874;4.762;2024-01-10T17:09:58;40.47;;;12.17;;
19965;SDS011;10144;50.874;4.762;2024-01-10T17:14:53;40.13;;;12.03;;
19965;SDS011;10144;50.874;4.762;2024-01-10T17:17:18;40.30;;;12.07;;
19965;SDS011;10144;50.874;4.762;2024-01-10T17:19:44;40.23;;;12.90;;
19965;SDS011;10144;50.874;4.762;2024-01-10T17:22:10;37.07;;;12.60;;
19965;SDS011;10144;50.874;4.762;2024-01-10T17:24:35;37.70;;;12.70;;
19965;SDS011;10144;50.874;4.762;2024-01-10T17:27:01;48.47;;;12.83;;
19965;SDS011;10144;50.874;4.762;2024-01-10T17:29:26;40.37;;;12.23;;
19965;SDS011;10144;50.874;4.762;2024-01-10T17:31:52;36.47;;;12.67;;
19965;SDS011;10144;50.874;4.762;2024-01-10T17:34:19;40.33;;;12.50;;
19965;SDS011;10144;50.874;4.762;2024-01-10T17:36:45;45.57;;;13.43;;
19965;SDS011;10144;50.874;4.762;2024-01-10T17:39:11;53.80;;;14.03;;
19965;SDS011;10144;50.874;4.762;2024-01-10T17:41:37;39.27;;;12.93;;
19965;SDS011;10144;50.874;4.762;2024-01-10T17:44:02;45.30;;;13.53;;
19965;SDS011;10144;50.874;4.762;2024-01-10T17:46:28;44.20;;;13.40;;
19965;SDS011;10144;50.874;4.762;2024-01-10T17:48:54;43.23;;;13.17;;
19965;SDS011;10144;50.874;4.762;2024-01-10T17:51:19;43.73;;;13.50;;
19965;SDS011;10144;50.874;4.762;2024-01-10T17:53:49;44.83;;;13.63;;
19965;SDS011;10144;50.874;4.762;2024-01-10T17:56:15;40.00;;;12.27;;
19965;SDS011;10144;50.874;4.762;2024-01-10T17:58:41;49.73;;;13.37;;
19965;SDS011;10144;50.874;4.762;2024-01-10T18:01:07;37.07;;;11.87;;
19965;SDS011;10144;50.874;4.762;2024-01-10T18:03:32;38.87;;;12.00;;
19965;SDS011;10144;50.874;4.762;2024-01-10T18:05:59;43.47;;;12.20;;